首页
METAR-TAF:

METAR-TAF

机场 :

Palm Beach International Airport

西棕榈滩, 佛罗里达州, 美国

纬度: 26-41-05N, 经度: 080-05-58W, 海拔: 5米

当前天气观测

该预报发布于23分钟前的23:53 UTC
风速13节,风向
温度 28°C
湿度 74%
气压 1019 hPa
能見度: 16.1公里
散云层高于2100英尺
多云层高于6500英尺

METAR: KPBI 312353Z 08013KT 10SM SCT021 BKN065 28/23 A3009 RMK AO2 SLP189 60000 T02830228 10300 20278 53008

时间: 20:16 (00:16 UTC)

预报

该预报发布于46分钟前的23:30 UTC
预报有效从01日的 00点(UTC)到 01日的 24点(UTC)
风速12节,风向东转东北
能見度: 10公里
少量云层高于1500英尺
散云层高于2500英尺
多云层高于5000英尺
附近有阵雨
从 01日的 0600点(UTC)
风速6节,风向东转东北
能見度: 10公里
少量云层高于2000英尺
散云层高于5000英尺
多云层高于12000英尺
附近有阵雨
从 01日的 1600点(UTC)
风速10节,风向
能見度: 10公里
散云层高于3000英尺, 积雨云.
多云层高于5000英尺
附近有雷暴

TAF: KPBI 312330Z 0100/0124 06012KT P6SM VCSH FEW015 SCT025 BKN050 FM010600 07006KT P6SM VCSH FEW020 SCT050 BKN120 FM011600 08010KT P6SM VCTS SCT030CB BKN050

超过4000个机场的气象观测和天气预报(METAR&TAF报告)。

可查询的气象台以黄色和红色小点在地图上表示。

将鼠标移到小点上方,可查看气象台名称。

然后点击查看天气观测和预报。

如需切换地图:点击带黑十字的绿色按钮放大地图;点击带横线的绿色按钮缩小地图;或者点击绿色箭头查看邻近地区的地图。


METAR-TAF: